createdAt,value
2017-12-19T00:02:19.330Z,91.04
2017-12-19T00:04:48.404Z,91.31
2017-12-19T00:07:16.781Z,91.18
2017-12-19T00:09:45.100Z,91.11
2017-12-19T00:12:13.413Z,91.21
2017-12-19T00:14:41.767Z,91.32
2017-12-19T00:17:10.073Z,91.28
2017-12-19T00:19:38.709Z,90.94
2017-12-19T00:22:07.076Z,91.03
2017-12-19T00:24:35.393Z,90.59
2017-12-19T00:27:03.708Z,90.30
2017-12-19T00:29:32.094Z,89.86
2017-12-19T00:32:00.405Z,89.50
2017-12-19T00:34:29.360Z,89.31
2017-12-19T00:36:57.737Z,89.33
2017-12-19T00:39:26.052Z,89.83
2017-12-19T00:41:54.360Z,90.23
2017-12-19T00:44:22.693Z,90.19
2017-12-19T00:46:51.020Z,89.61
2017-12-19T00:49:19.471Z,89.25
2017-12-19T00:51:47.780Z,88.78
2017-12-19T00:54:16.093Z,88.31
2017-12-19T00:56:46.593Z,87.67
2017-12-19T00:59:14.903Z,87.66
2017-12-19T01:01:43.208Z,87.59
2017-12-19T01:04:12.089Z,87.53
2017-12-19T01:06:41.021Z,87.19
2017-12-19T01:09:10.942Z,87.34
2017-12-19T01:11:39.676Z,87.54
2017-12-19T01:14:09.268Z,87.75
2017-12-19T01:16:37.585Z,88.47
2017-12-19T01:19:06.052Z,89.19
2017-12-19T01:21:34.368Z,89.77
2017-12-19T01:24:02.897Z,89.48
2017-12-19T01:26:31.646Z,88.70
2017-12-19T01:28:59.951Z,88.10
2017-12-19T01:31:28.264Z,88.25
2017-12-19T01:33:56.621Z,88.25
2017-12-19T01:36:25.688Z,88.58
2017-12-19T01:38:54.500Z,89.42
2017-12-19T01:41:22.861Z,90.03
2017-12-19T01:43:51.165Z,90.20
2017-12-19T01:46:19.479Z,90.47
2017-12-19T01:48:47.839Z,90.83
2017-12-19T01:51:16.164Z,91.28
2017-12-19T01:53:44.476Z,91.39
2017-12-19T01:56:13.600Z,91.26
2017-12-19T01:58:41.917Z,91.24
2017-12-19T02:01:10.216Z,90.92
2017-12-19T02:03:39.352Z,90.20
2017-12-19T02:06:07.660Z,89.66
2017-12-19T02:08:36.103Z,90.26
2017-12-19T02:11:04.497Z,91.04
2017-12-19T02:13:32.813Z,91.89
2017-12-19T02:16:01.144Z,92.34
2017-12-19T02:18:29.521Z,92.57
2017-12-19T02:20:57.844Z,92.72
2017-12-19T02:23:26.158Z,92.82
2017-12-19T02:25:55.840Z,92.68
2017-12-19T02:28:26.425Z,92.17
2017-12-19T02:30:54.792Z,91.62
2017-12-19T02:33:23.237Z,91.37
2017-12-19T02:35:51.628Z,91.07
2017-12-19T02:38:20.225Z,90.77
2017-12-19T02:40:48.668Z,90.43
2017-12-19T02:43:22.544Z,90.23
2017-12-19T02:45:52.580Z,89.97
2017-12-19T02:48:20.908Z,89.89
2017-12-19T02:50:49.272Z,90.29
2017-12-19T02:53:17.852Z,90.77
2017-12-19T02:55:47.020Z,91.21
2017-12-19T02:58:16.904Z,91.39
2017-12-19T03:00:45.220Z,91.52
2017-12-19T03:03:14.725Z,91.47
2017-12-19T03:05:43.077Z,91.40
2017-12-19T03:08:11.390Z,91.64
2017-12-19T03:10:39.760Z,91.86
2017-12-19T03:13:08.112Z,92.15
2017-12-19T03:15:36.428Z,92.37
2017-12-19T03:18:05.413Z,92.16
2017-12-19T03:20:33.726Z,92.20
2017-12-19T03:23:02.058Z,92.21
2017-12-19T03:25:30.424Z,91.88
2017-12-19T03:27:58.741Z,91.93
2017-12-19T03:30:27.060Z,91.81
2017-12-19T03:32:55.449Z,92.00
2017-12-19T03:35:23.756Z,91.57
2017-12-19T03:37:52.549Z,91.81
2017-12-19T03:40:20.982Z,91.70
2017-12-19T03:42:49.291Z,91.73
2017-12-19T03:45:18.004Z,91.91
2017-12-19T03:47:46.539Z,91.84
2017-12-19T03:50:14.848Z,92.04
2017-12-19T03:52:43.165Z,92.11
2017-12-19T03:55:12.177Z,92.23
2017-12-19T03:57:40.480Z,92.00
2017-12-19T04:00:08.811Z,92.28
2017-12-19T04:02:37.670Z,92.32
2017-12-19T04:05:06.012Z,92.53
2017-12-19T04:07:35.043Z,92.65
2017-12-19T04:10:03.412Z,92.40
2017-12-19T04:12:31.723Z,92.31
2017-12-19T04:15:00.052Z,92.49
2017-12-19T04:17:28.420Z,92.34
2017-12-19T04:19:56.735Z,92.02
2017-12-19T04:22:25.811Z,91.79
2017-12-19T04:24:54.150Z,91.89
2017-12-19T04:27:22.622Z,92.09
2017-12-19T04:29:51.964Z,92.07
2017-12-19T04:32:20.934Z,91.98
2017-12-19T04:34:49.316Z,92.31
2017-12-19T04:37:17.679Z,92.60
2017-12-19T04:39:46.000Z,92.85
2017-12-19T04:42:14.316Z,92.92
2017-12-19T04:44:42.687Z,93.11
2017-12-19T04:47:10.997Z,93.27
2017-12-19T04:49:39.312Z,93.31
2017-12-19T04:52:07.689Z,93.27
2017-12-19T04:54:36.008Z,92.97
2017-12-19T04:57:04.388Z,92.80
2017-12-19T04:59:32.748Z,92.80
2017-12-19T05:02:01.078Z,92.92
2017-12-19T05:04:29.487Z,92.82
2017-12-19T05:06:57.625Z,92.93
2017-12-19T05:09:26.036Z,92.84
2017-12-19T05:11:54.348Z,92.79
2017-12-19T05:14:22.723Z,93.02
2017-12-19T05:16:51.142Z,93.14
2017-12-19T05:19:19.772Z,93.15
2017-12-19T05:21:48.131Z,92.80
2017-12-19T05:24:16.444Z,92.63
2017-12-19T05:26:45.516Z,92.63
2017-12-19T05:29:14.255Z,92.64
2017-12-19T05:31:42.571Z,92.62
2017-12-19T05:34:10.889Z,92.65
2017-12-19T05:36:39.798Z,92.72
2017-12-19T05:39:08.116Z,92.95
2017-12-19T05:41:37.118Z,92.50
2017-12-19T05:44:05.569Z,92.35
2017-12-19T05:46:33.880Z,92.13
2017-12-19T05:49:02.192Z,92.20
2017-12-19T05:51:30.636Z,92.62
2017-12-19T05:53:58.959Z,92.26
2017-12-19T05:56:27.269Z,92.44
2017-12-19T05:58:55.636Z,92.44
2017-12-19T06:01:23.948Z,92.44
2017-12-19T06:03:52.019Z,92.22
2017-12-19T06:06:20.379Z,92.46
2017-12-19T06:08:49.040Z,92.30
2017-12-19T06:11:17.880Z,92.13
2017-12-19T06:13:46.244Z,91.96
2017-12-19T06:16:14.642Z,92.26
2017-12-19T06:18:43.627Z,92.64
2017-12-19T06:21:11.944Z,92.32
2017-12-19T06:23:40.323Z,92.53
2017-12-19T06:26:08.641Z,92.54
2017-12-19T06:28:37.556Z,92.26
2017-12-19T06:31:06.015Z,92.03
2017-12-19T06:33:34.820Z,91.99
2017-12-19T06:36:03.140Z,91.72
2017-12-19T06:38:31.492Z,91.49
2017-12-19T06:40:59.814Z,91.32
2017-12-19T06:43:28.129Z,91.59
2017-12-19T06:45:56.595Z,91.51
2017-12-19T06:48:24.912Z,91.62
2017-12-19T06:50:53.349Z,91.56
2017-12-19T06:53:21.697Z,91.57
2017-12-19T06:55:50.008Z,91.42
2017-12-19T06:58:18.331Z,91.21
2017-12-19T07:00:46.708Z,91.46
2017-12-19T07:03:15.025Z,91.45
2017-12-19T07:05:43.351Z,90.97
2017-12-19T07:08:12.182Z,91.11
2017-12-19T07:10:40.708Z,91.27
2017-12-19T07:13:09.020Z,91.49
2017-12-19T07:15:37.385Z,91.27
2017-12-19T07:18:05.705Z,91.01
2017-12-19T07:20:34.496Z,91.20
2017-12-19T07:23:02.948Z,91.34
2017-12-19T07:25:31.262Z,91.36
2017-12-19T07:28:00.290Z,91.67
2017-12-19T07:30:28.644Z,91.60
2017-12-19T07:32:56.960Z,91.54
2017-12-19T07:35:25.172Z,91.11
2017-12-19T07:37:53.800Z,90.54
2017-12-19T07:40:22.285Z,89.49
2017-12-19T07:42:50.616Z,88.99
2017-12-19T07:45:18.976Z,88.56
2017-12-19T07:47:47.288Z,88.41
2017-12-19T07:50:16.016Z,88.78
2017-12-19T07:52:45.451Z,88.56
2017-12-19T07:55:13.756Z,88.38
2017-12-19T07:57:42.069Z,89.08
2017-12-19T08:00:10.441Z,88.87
2017-12-19T08:02:38.976Z,89.11
2017-12-19T08:05:07.304Z,88.70
2017-12-19T08:07:35.664Z,88.54
2017-12-19T08:10:03.981Z,88.25
2017-12-19T08:12:33.055Z,88.07
2017-12-19T08:15:03.377Z,86.54
2017-12-19T08:17:31.701Z,85.23
2017-12-19T08:20:00.008Z,84.47
2017-12-19T08:22:29.341Z,83.75
2017-12-19T08:24:58.416Z,83.32
2017-12-19T08:27:27.508Z,82.70
2017-12-19T08:29:55.881Z,82.38
2017-12-19T08:32:24.211Z,83.48
2017-12-19T08:34:52.546Z,85.66
2017-12-19T08:37:20.896Z,85.99
2017-12-19T08:39:50.436Z,85.53
2017-12-19T08:42:18.745Z,85.51
2017-12-19T08:44:47.083Z,85.86
2017-12-19T08:47:15.563Z,85.81
2017-12-19T08:49:43.872Z,84.88
2017-12-19T08:52:12.232Z,84.82
2017-12-19T08:54:40.541Z,85.25
2017-12-19T08:57:09.499Z,86.31
2017-12-19T08:59:37.848Z,86.32
2017-12-19T09:02:06.157Z,86.61
2017-12-19T09:04:34.471Z,87.24
2017-12-19T09:07:03.751Z,87.09
2017-12-19T09:09:33.218Z,87.19
2017-12-19T09:12:01.533Z,87.46
2017-12-19T09:14:30.316Z,87.37
2017-12-19T09:16:58.623Z,87.51
2017-12-19T09:19:26.937Z,87.30
2017-12-19T09:21:55.293Z,87.31
2017-12-19T09:24:24.728Z,86.45
2017-12-19T09:26:53.031Z,86.26
2017-12-19T09:29:21.392Z,86.87
2017-12-19T09:31:49.704Z,86.05
2017-12-19T09:34:18.024Z,86.97
2017-12-19T09:36:46.688Z,87.58
2017-12-19T09:39:14.992Z,87.19
2017-12-19T09:41:43.056Z,87.13
2017-12-19T09:44:11.421Z,87.59
2017-12-19T09:46:39.720Z,87.51
2017-12-19T09:49:08.035Z,86.99
2017-12-19T09:51:36.400Z,86.25
2017-12-19T09:54:04.780Z,85.80
2017-12-19T09:56:33.116Z,85.49
2017-12-19T09:59:01.695Z,85.53
2017-12-19T10:01:30.000Z,84.62
2017-12-19T10:03:58.894Z,85.38
2017-12-19T10:06:27.260Z,86.05
2017-12-19T10:08:55.563Z,85.74
2017-12-19T10:11:23.876Z,85.94
2017-12-19T10:13:52.204Z,84.80
2017-12-19T10:16:21.221Z,84.90
2017-12-19T10:18:50.404Z,85.15
2017-12-19T10:21:18.707Z,84.92
2017-12-19T10:23:47.780Z,85.01
2017-12-19T10:26:16.912Z,84.94
2017-12-19T10:28:45.225Z,83.28
2017-12-19T10:31:13.580Z,83.38
2017-12-19T10:33:41.919Z,82.60
2017-12-19T10:36:11.019Z,82.06
2017-12-19T10:38:39.333Z,81.28
2017-12-19T10:41:07.700Z,79.94
2017-12-19T10:43:36.013Z,80.35
2017-12-19T10:46:04.521Z,80.80
2017-12-19T10:48:32.883Z,82.19
2017-12-19T10:51:01.200Z,81.34
2017-12-19T10:53:29.508Z,82.71
2017-12-19T10:55:58.037Z,81.97
2017-12-19T10:58:26.349Z,82.46
2017-12-19T11:00:54.700Z,81.77
2017-12-19T11:03:23.263Z,81.17
2017-12-19T11:05:51.648Z,82.63
2017-12-19T11:08:19.953Z,82.39
2017-12-19T11:10:48.315Z,83.64
2017-12-19T11:13:16.623Z,83.91
2017-12-19T11:15:44.931Z,83.46
2017-12-19T11:18:13.448Z,82.30
2017-12-19T11:20:43.268Z,81.68
2017-12-19T11:23:12.338Z,82.77
2017-12-19T11:25:40.720Z,81.83
2017-12-19T11:28:09.036Z,82.40
2017-12-19T11:30:37.824Z,81.80
2017-12-19T11:33:06.888Z,83.17
2017-12-19T11:35:35.195Z,83.37
2017-12-19T11:38:03.512Z,81.97
2017-12-19T11:40:32.196Z,81.95
2017-12-19T11:43:00.787Z,81.58
2017-12-19T11:45:29.101Z,81.48
2017-12-19T11:47:57.451Z,80.67
2017-12-19T11:50:25.763Z,80.92
2017-12-19T11:52:54.209Z,81.44
2017-12-19T11:55:22.576Z,81.19
2017-12-19T11:57:50.891Z,81.04
2017-12-19T12:00:19.197Z,81.23
2017-12-19T12:02:47.552Z,80.99
2017-12-19T12:05:16.427Z,80.38
2017-12-19T12:07:44.732Z,79.91
2017-12-19T12:10:13.094Z,80.29
2017-12-19T12:12:42.093Z,80.05
2017-12-19T12:15:10.409Z,79.21
2017-12-19T12:17:38.755Z,80.67
2017-12-19T12:20:07.832Z,80.38
2017-12-19T12:22:36.137Z,80.79
2017-12-19T12:25:04.510Z,81.35
2017-12-19T12:27:32.815Z,81.27
2017-12-19T12:30:01.124Z,80.80
2017-12-19T12:32:29.464Z,79.89
2017-12-19T12:34:57.812Z,80.46
2017-12-19T12:37:26.133Z,81.67
2017-12-19T12:39:54.800Z,80.40
2017-12-19T12:42:23.104Z,80.06
2017-12-19T12:44:51.186Z,81.03
2017-12-19T12:47:19.535Z,80.95
2017-12-19T12:49:47.844Z,82.05
2017-12-19T12:52:16.150Z,82.28
2017-12-19T12:54:44.538Z,82.58
2017-12-19T12:57:13.612Z,82.50
2017-12-19T12:59:41.931Z,80.91
2017-12-19T13:02:10.299Z,81.39
2017-12-19T13:04:38.613Z,81.55
2017-12-19T13:07:06.924Z,82.33
2017-12-19T13:09:36.292Z,82.46
2017-12-19T13:12:04.816Z,82.38
2017-12-19T13:14:33.124Z,82.39
2017-12-19T13:17:01.494Z,82.10
2017-12-19T13:19:30.623Z,82.58
2017-12-19T13:21:58.952Z,82.74
2017-12-19T13:24:27.271Z,82.89
2017-12-19T13:26:56.108Z,81.78
2017-12-19T13:29:24.620Z,81.84
2017-12-19T13:31:52.926Z,81.35
2017-12-19T13:34:21.291Z,81.11
2017-12-19T13:36:49.595Z,81.42
2017-12-19T13:39:18.418Z,82.09
2017-12-19T13:41:46.823Z,81.77
2017-12-19T13:44:16.549Z,82.07
2017-12-19T13:46:44.899Z,82.30
2017-12-19T13:49:14.092Z,82.16
2017-12-19T13:51:42.579Z,80.95
2017-12-19T13:54:10.892Z,81.64
2017-12-19T13:56:39.732Z,81.94
2017-12-19T13:59:08.035Z,82.67
2017-12-19T14:01:36.344Z,83.30
2017-12-19T14:04:04.756Z,82.37
2017-12-19T14:06:33.096Z,82.62
2017-12-19T14:09:01.405Z,82.43
2017-12-19T14:11:29.751Z,82.63
2017-12-19T14:13:58.056Z,82.58
2017-12-19T14:16:26.425Z,82.84
2017-12-19T14:18:54.745Z,83.21
2017-12-19T14:21:24.484Z,83.58
2017-12-19T14:23:52.787Z,83.25
2017-12-19T14:26:21.164Z,83.65
2017-12-19T14:28:49.468Z,83.07
2017-12-19T14:31:17.776Z,82.64
2017-12-19T14:33:47.372Z,83.20
2017-12-19T14:36:15.853Z,84.35
2017-12-19T14:38:44.190Z,84.35
2017-12-19T14:41:12.544Z,84.05
2017-12-19T14:43:41.612Z,84.09
2017-12-19T14:46:10.687Z,84.87
2017-12-19T14:48:39.049Z,84.12
2017-12-19T14:51:07.504Z,84.00
2017-12-19T14:53:36.056Z,84.93
2017-12-19T14:56:04.401Z,84.45
2017-12-19T14:58:32.771Z,84.37
2017-12-19T15:01:01.916Z,84.40
2017-12-19T15:03:30.252Z,84.73
2017-12-19T15:05:58.623Z,84.82
2017-12-19T15:08:27.320Z,84.94
2017-12-19T15:10:55.837Z,84.71
2017-12-19T15:13:24.156Z,84.81
2017-12-19T15:15:52.459Z,84.27
2017-12-19T15:18:20.799Z,84.49
2017-12-19T15:20:49.107Z,84.11
2017-12-19T15:23:18.060Z,84.64
2017-12-19T15:25:46.406Z,84.83
2017-12-19T15:28:15.490Z,84.99
2017-12-19T15:30:44.761Z,85.20
2017-12-19T15:33:13.752Z,85.61
2017-12-19T15:35:42.570Z,85.44
2017-12-19T15:38:10.880Z,85.09
2017-12-19T15:40:39.832Z,85.00
2017-12-19T15:43:08.145Z,84.64
2017-12-19T15:45:36.498Z,84.28
2017-12-19T15:48:05.624Z,83.77
2017-12-19T15:50:33.941Z,83.62
2017-12-19T15:53:02.256Z,83.55
2017-12-19T15:55:30.832Z,83.54
2017-12-19T15:57:59.912Z,83.16
2017-12-19T16:00:28.362Z,82.86
2017-12-19T16:02:56.728Z,83.02
2017-12-19T16:05:25.075Z,82.75
2017-12-19T16:07:53.436Z,82.56
2017-12-19T16:10:22.387Z,82.29
2017-12-19T16:12:51.178Z,82.41
2017-12-19T16:15:19.496Z,82.97
2017-12-19T16:17:48.539Z,83.09
2017-12-19T16:20:17.013Z,83.14
2017-12-19T16:22:45.868Z,83.44
2017-12-19T16:25:15.212Z,82.60
2017-12-19T16:27:43.583Z,82.66
2017-12-19T16:30:11.892Z,82.74
2017-12-19T16:32:40.204Z,82.10
2017-12-19T16:35:08.653Z,82.19
2017-12-19T16:37:36.972Z,80.93
2017-12-19T16:40:05.282Z,81.41
2017-12-19T16:42:34.063Z,81.70
2017-12-19T16:45:03.829Z,80.91
2017-12-19T16:47:32.227Z,80.54
2017-12-19T16:50:01.074Z,80.11
2017-12-19T16:52:29.558Z,80.07
2017-12-19T16:54:57.863Z,79.62
2017-12-19T16:57:26.216Z,79.31
2017-12-19T16:59:54.521Z,79.36
2017-12-19T17:02:22.831Z,79.38
2017-12-19T17:04:51.209Z,79.58
2017-12-19T17:07:19.573Z,79.34
2017-12-19T17:09:47.887Z,79.65
2017-12-19T17:12:16.512Z,80.62
2017-12-19T17:14:44.823Z,79.99
2017-12-19T17:17:13.143Z,79.19
2017-12-19T17:19:41.720Z,80.32
2017-12-19T17:22:10.631Z,79.70
2017-12-19T17:24:38.961Z,80.77
2017-12-19T17:27:07.751Z,80.80
2017-12-19T17:29:36.288Z,79.85
2017-12-19T17:32:04.611Z,78.87
2017-12-19T17:34:33.667Z,78.30
2017-12-19T17:37:02.755Z,78.62
2017-12-19T17:39:31.414Z,78.21
2017-12-19T17:42:01.792Z,78.49
2017-12-19T17:44:31.624Z,78.52
2017-12-19T17:47:00.608Z,78.32
2017-12-19T17:49:28.977Z,78.30
2017-12-19T17:51:57.354Z,79.17
2017-12-19T17:54:26.148Z,79.44
2017-12-19T17:56:54.460Z,79.43
2017-12-19T17:59:22.875Z,79.87
2017-12-19T18:01:52.095Z,79.81
2017-12-19T18:04:20.407Z,79.96
2017-12-19T18:06:48.859Z,79.93
2017-12-19T18:09:17.948Z,79.84
2017-12-19T18:11:46.310Z,80.05
2017-12-19T18:14:14.692Z,80.00
2017-12-19T18:16:43.521Z,80.72
2017-12-19T18:19:12.506Z,80.74
2017-12-19T18:21:41.475Z,80.55
2017-12-19T18:24:10.531Z,80.93
2017-12-19T18:26:38.935Z,80.44
2017-12-19T18:29:07.262Z,80.63
2017-12-19T18:31:36.238Z,80.99
2017-12-19T18:34:04.809Z,80.97
2017-12-19T18:36:33.717Z,80.78
2017-12-19T18:39:02.032Z,80.35
2017-12-19T18:41:30.454Z,80.09
2017-12-19T18:43:59.337Z,80.43
2017-12-19T18:46:28.443Z,80.78
2017-12-19T18:48:57.489Z,80.86
2017-12-19T18:51:25.883Z,81.04
2017-12-19T18:53:55.116Z,80.87
2017-12-19T18:56:24.274Z,81.12
2017-12-19T18:58:52.588Z,81.11
2017-12-19T19:01:21.753Z,80.90
2017-12-19T19:03:50.134Z,80.82
2017-12-19T19:06:18.501Z,80.24
2017-12-19T19:08:48.151Z,80.56
2017-12-19T19:11:16.462Z,81.12
2017-12-19T19:13:44.815Z,81.52
2017-12-19T19:16:13.503Z,81.66
2017-12-19T19:18:41.854Z,81.17
2017-12-19T19:21:10.159Z,81.56
2017-12-19T19:23:39.389Z,81.14
2017-12-19T19:26:07.756Z,81.21
2017-12-19T19:28:37.003Z,82.08
2017-12-19T19:31:06.121Z,82.04
2017-12-19T19:33:35.626Z,82.04
2017-12-19T19:36:04.034Z,82.42
2017-12-19T19:38:32.451Z,82.68
2017-12-19T19:41:01.026Z,82.60
2017-12-19T19:43:29.368Z,82.42
2017-12-19T19:45:57.832Z,83.02
2017-12-19T19:48:26.857Z,83.51
2017-12-19T19:50:56.153Z,82.91
2017-12-19T19:53:25.629Z,82.99
2017-12-19T19:55:54.560Z,83.17
2017-12-19T19:58:22.943Z,83.20
2017-12-19T20:00:52.067Z,83.11
2017-12-19T20:03:20.645Z,84.01
2017-12-19T20:05:49.183Z,84.97
2017-12-19T20:08:18.274Z,85.36
2017-12-19T20:10:46.905Z,85.91
2017-12-19T20:13:15.359Z,86.10
2017-12-19T20:15:44.596Z,87.09
2017-12-19T20:18:13.002Z,87.48
2017-12-19T20:20:42.395Z,88.00
2017-12-19T20:23:10.712Z,88.74
2017-12-19T20:25:39.068Z,89.74
2017-12-19T20:28:07.444Z,90.37
2017-12-19T20:30:36.262Z,90.82
2017-12-19T20:33:04.577Z,90.96
2017-12-19T20:35:33.187Z,91.28
2017-12-19T20:38:02.310Z,91.02
2017-12-19T20:40:30.969Z,90.60
2017-12-19T20:43:00.831Z,90.21
2017-12-19T20:45:29.284Z,90.24
2017-12-19T20:47:58.343Z,90.53
2017-12-19T20:50:27.471Z,90.82
2017-12-19T20:52:55.832Z,90.82
2017-12-19T20:55:24.912Z,91.24
2017-12-19T20:57:55.396Z,91.50
2017-12-19T21:00:23.760Z,91.94
2017-12-19T21:02:52.124Z,92.12
2017-12-19T21:05:20.590Z,92.03
2017-12-19T21:07:49.999Z,91.92
2017-12-19T21:10:19.118Z,92.15
2017-12-19T21:12:48.207Z,92.09
2017-12-19T21:15:16.702Z,91.95
2017-12-19T21:17:46.426Z,91.79
2017-12-19T21:20:14.963Z,92.10
2017-12-19T21:22:43.326Z,92.51
2017-12-19T21:25:11.747Z,92.62
2017-12-19T21:27:40.835Z,92.77
2017-12-19T21:30:09.742Z,93.45
2017-12-19T21:32:38.165Z,93.24
2017-12-19T21:35:07.551Z,93.30
2017-12-19T21:37:36.027Z,93.02
2017-12-19T21:40:04.465Z,92.76
2017-12-19T21:42:33.441Z,92.28
2017-12-19T21:45:02.503Z,92.07
2017-12-19T21:47:31.239Z,91.92
2017-12-19T21:50:01.291Z,91.81
2017-12-19T21:52:29.640Z,91.86
2017-12-19T21:54:57.997Z,91.81
2017-12-19T21:57:26.450Z,91.65
2017-12-19T21:59:54.820Z,91.53
2017-12-19T22:02:23.185Z,91.53
2017-12-19T22:04:51.621Z,91.49
2017-12-19T22:07:20.771Z,91.47
2017-12-19T22:09:49.743Z,91.53
2017-12-19T22:12:18.491Z,91.47
2017-12-19T22:14:47.876Z,91.65
2017-12-19T22:17:16.306Z,91.60
2017-12-19T22:19:45.643Z,91.62
2017-12-19T22:22:15.307Z,91.60
2017-12-19T22:24:44.366Z,91.34
2017-12-19T22:27:12.959Z,91.07
2017-12-19T22:29:41.607Z,90.96
2017-12-19T22:32:10.651Z,91.00
2017-12-19T22:34:39.907Z,91.13
2017-12-19T22:37:09.184Z,91.08
2017-12-19T22:39:37.905Z,91.15
2017-12-19T22:42:06.601Z,91.34
2017-12-19T22:44:35.514Z,91.49
2017-12-19T22:47:04.651Z,91.32
2017-12-19T22:49:33.136Z,91.13
2017-12-19T22:52:01.471Z,91.15
2017-12-19T22:54:29.839Z,91.19
2017-12-19T22:56:59.032Z,91.30
2017-12-19T22:59:27.388Z,91.36
2017-12-19T23:01:55.742Z,91.43
2017-12-19T23:04:24.810Z,91.42
2017-12-19T23:06:53.131Z,91.42
2017-12-19T23:09:21.491Z,91.64
2017-12-19T23:11:49.919Z,91.61
2017-12-19T23:14:18.546Z,91.58
2017-12-19T23:16:46.939Z,91.61
2017-12-19T23:19:15.311Z,91.80
2017-12-19T23:21:44.975Z,91.98
2017-12-19T23:24:13.277Z,92.12
2017-12-19T23:26:42.966Z,92.21
2017-12-19T23:29:13.260Z,92.19
2017-12-19T23:31:42.377Z,92.27
2017-12-19T23:34:10.769Z,92.29
2017-12-19T23:36:39.085Z,92.39
2017-12-19T23:39:07.444Z,92.44
2017-12-19T23:41:36.615Z,92.40
2017-12-19T23:44:05.607Z,92.34
2017-12-19T23:46:33.957Z,92.42
2017-12-19T23:49:02.264Z,92.23
2017-12-19T23:51:30.937Z,92.04
2017-12-19T23:53:59.391Z,91.86
2017-12-19T23:56:27.736Z,91.68
2017-12-19T23:58:56.188Z,91.99
